Gasburg, Virginia
Current Conditions -  °F | °C
As of 8:16 AM on Thursday 18 Dec 2014 (Local Time) from KAVC Reporting Station
Clear Clear  
Wind Chill:   Ceiling: Unl
Heat Index:   Visibility: 10mi
Dew Point: -3°   Wind: 0mph
Humidity: 81%   Direction: NA
Pressure: 30.22"   Gusts: NA
Location:  36.58°N, 77.88°W
Report Text: KAVC 181316Z AUTO 00000KT 10SM CLR 00/M03 A3022 RMK AO2 T10011030
Loading
Personal Weather Stations






























Interactive Weather Map New forecast layout! Learn more

10-Day Weather Forecast

Advertisements
Track Severe Weather on mobile